Madisonville, Missouri
Current Conditions -  °F | °C
As of 12:24 PM on Wednesday 26 Nov 2014 (Local Time) from KUIN Reporting Station
Moderate Snow Moderate Snow  
Wind Chill: 25°   Ceiling: 900
Heat Index: 32°   Visibility: 0.25mi
Dew Point: 29°   Wind: 8mph
Humidity: 88%   Direction: 150°SSE
Pressure: 29.95"   Gusts: NA
Location:  39.5275°N, 91.5489°W
Report Text: KUIN 261824Z AUTO 15007KT 1/4SM SN FG VV009 00/M02 A2995 RMK AO2 P0000 T00001017
Loading
Personal Weather Stations






























Interactive Weather Map New forecast layout! Learn more

10-Day Weather Forecast

Advertisements
Track Severe Weather on mobile